Nelvik, North Dakota
Current Conditions -  °F | °C
As of 11:15 AM on Thursday 27 Nov 2014 (Local Time) from K7L2 Reporting Station
Overcast Overcast  
Wind Chill: -14°   Ceiling: 7500
Heat Index:   Visibility: 10mi
Dew Point:   Wind: 10mph
Humidity: 92%   Direction: 150°SSE
Pressure: 30.26"   Gusts: NA
Location:  46.0926°N, 99.1856°W
Report Text: K7L2 271715Z AUTO 15009KT 10SM BKN075 OVC090 M17/M18 A3026 RMK AO2
Loading
Personal Weather Stations






























Interactive Weather Map New forecast layout! Learn more

10-Day Weather Forecast

Advertisements
Track Severe Weather on mobile